Time;durP1;ratioP1;P1;durP2;ratioP2;P2;SDS_P1;SDS_P2;PMS_P1;PMS_P2;Temp;Humidity;BMP_temperature;BMP_pressure;BME280_temperature;BME280_humidity;BME280_pressure;Samples;Min_cycle;Max_cycle;Signal;HPM_P1;HPM_P2
2021/06/15 00:00:52;;;;;;;8.75;7.85;;;;;;;;;;5101136;27;20394;-40
2021/06/15 00:03:17;;;;;;;11.18;9.57;;;;;;;;;;5110061;27;20470;-39
2021/06/15 00:05:42;;;;;;;7.43;6.72;;;;;;;;;;5107231;27;20118;-40
2021/06/15 00:08:08;;;;;;;8.25;7.45;;;;;;;;;;5105791;27;20027;-40
2021/06/15 00:10:33;;;;;;;6.20;5.70;;;;;;;;;;5104363;27;20052;-40
2021/06/15 00:12:58;;;;;;;7.70;6.90;;;;;;;;;;5104103;27;20024;-39
2021/06/15 00:15:25;;;;;;;10.02;8.50;;;;;;;;;;5103553;27;20027;-39
2021/06/15 00:17:51;;;;;;;7.13;6.43;;;;;;;;;;5107996;27;20517;-39
2021/06/15 00:20:16;;;;;;;7.47;6.78;;;;;;;;;;5107565;27;20048;-40
2021/06/15 00:22:42;;;;;;;6.50;5.95;;;;;;;;;;5101292;28;20027;-41
2021/06/15 00:25:09;;;;;;;6.85;6.25;;;;;;;;;;5104100;27;20437;-44
2021/06/15 00:27:34;;;;;;;8.10;7.30;;;;;;;;;;5098328;28;20020;-41
2021/06/15 00:29:59;;;;;;;8.52;6.75;;;;;;;;;;5099696;27;20031;-41
2021/06/15 00:32:25;;;;;;;6.82;6.15;;;;;;;;;;5101589;27;20035;-43
2021/06/15 00:34:50;;;;;;;9.30;8.40;;;;;;;;;;5102839;27;20020;-40
2021/06/15 00:37:16;;;;;;;7.65;6.93;;;;;;;;;;5105362;27;20012;-40
2021/06/15 00:39:41;;;;;;;8.27;7.55;;;;;;;;;;5103020;27;20030;-42
2021/06/15 00:42:07;;;;;;;8.15;7.10;;;;;;;;;;5105917;27;20023;-40
2021/06/15 00:44:33;;;;;;;7.80;7.03;;;;;;;;;;5102469;27;20027;-40
2021/06/15 00:46:58;;;;;;;10.10;7.00;;;;;;;;;;5099839;27;20016;-40
2021/06/15 00:49:25;;;;;;;9.45;7.82;;;;;;;;;;5099209;27;20019;-39
2021/06/15 00:51:50;;;;;;;11.95;10.65;;;;;;;;;;5096407;28;20024;-42
2021/06/15 00:54:16;;;;;;;7.32;6.72;;;;;;;;;;5103765;28;20498;-41
2021/06/15 00:56:41;;;;;;;7.13;6.43;;;;;;;;;;5101959;28;20015;-42
2021/06/15 00:59:06;;;;;;;8.90;8.07;;;;;;;;;;5098642;28;20023;-40
2021/06/15 01:01:32;;;;;;;11.40;7.07;;;;;;;;;;5103312;27;20089;-39
2021/06/15 01:03:57;;;;;;;15.43;7.97;;;;;;;;;;5102623;28;20476;-40
2021/06/15 01:06:34;;;;;;;19.25;9.52;;;;;;;;;;5097844;28;20125;-40
2021/06/15 01:09:05;;;;;;;11.57;9.18;;;;;;;;;;5101958;28;20070;-40
2021/06/15 01:11:50;;;;;;;12.95;8.40;;;;;;;;;;5105455;28;20024;-39
2021/06/15 01:14:34;;;;;;;7.15;6.10;;;;;;;;;;5102477;28;20581;-39
2021/06/15 01:17:09;;;;;;;8.32;7.45;;;;;;;;;;5101972;28;20013;-39
2021/06/15 01:19:46;;;;;;;7.75;7.05;;;;;;;;;;5100286;28;20062;-39
2021/06/15 01:22:27;;;;;;;7.68;6.97;;;;;;;;;;5098991;28;20013;-40
2021/06/15 01:24:56;;;;;;;16.92;7.15;;;;;;;;;;5101713;28;20050;-39
2021/06/15 01:27:22;;;;;;;9.33;8.47;;;;;;;;;;5105288;28;20470;-39
2021/06/15 01:29:49;;;;;;;7.40;6.70;;;;;;;;;;5106526;27;20016;-40
2021/06/15 01:32:26;;;;;;;9.13;8.27;;;;;;;;;;5107024;28;20027;-39
2021/06/15 01:34:52;;;;;;;22.15;7.53;;;;;;;;;;5098290;28;20028;-39
2021/06/15 01:37:38;;;;;;;9.00;8.10;;;;;;;;;;5099818;28;20122;-39
2021/06/15 01:40:14;;;;;;;10.88;8.48;;;;;;;;;;5098531;28;20024;-39
2021/06/15 01:42:42;;;;;;;9.05;7.90;;;;;;;;;;5099356;28;20026;-39
2021/06/15 01:45:27;;;;;;;8.73;7.85;;;;;;;;;;5101611;28;20118;-39
2021/06/15 01:48:16;;;;;;;9.25;8.45;;;;;;;;;;5105510;28;20472;-39
2021/06/15 01:50:43;;;;;;;8.43;7.63;;;;;;;;;;5079342;28;20570;-40
2021/06/15 01:53:09;;;;;;;9.23;8.20;;;;;;;;;;5100342;28;20031;-39
2021/06/15 01:55:35;;;;;;;8.48;7.70;;;;;;;;;;5102758;28;20080;-39
2021/06/15 01:58:02;;;;;;;8.52;7.72;;;;;;;;;;5103346;28;20072;-39
2021/06/15 02:00:28;;;;;;;10.05;8.45;;;;;;;;;;5094351;28;20044;-39
2021/06/15 02:02:54;;;;;;;7.70;6.90;;;;;;;;;;5102208;27;20064;-40
2021/06/15 02:05:22;;;;;;;8.40;7.60;;;;;;;;;;5103059;27;20035;-39
2021/06/15 02:07:49;;;;;;;8.65;6.60;;;;;;;;;;5104786;27;20047;-41
2021/06/15 02:10:16;;;;;;;7.68;7.00;;;;;;;;;;5102028;27;20023;-39
2021/06/15 02:12:45;;;;;;;11.23;8.38;;;;;;;;;;5098337;27;20036;-41
2021/06/15 02:15:13;;;;;;;13.43;8.07;;;;;;;;;;5100488;27;20034;-41
2021/06/15 02:17:39;;;;;;;7.95;6.25;;;;;;;;;;5101298;27;20439;-41
2021/06/15 02:20:05;;;;;;;7.75;6.97;;;;;;;;;;5102080;27;20027;-41
2021/06/15 02:22:31;;;;;;;8.00;7.30;;;;;;;;;;5103618;27;20538;-40
2021/06/15 02:24:58;;;;;;;9.45;6.60;;;;;;;;;;5104569;27;20152;-40
2021/06/15 02:27:24;;;;;;;7.68;6.95;;;;;;;;;;5109343;27;20027;-40
2021/06/15 02:29:54;;;;;;;10.55;6.20;;;;;;;;;;5108539;27;20028;-39
2021/06/15 02:32:24;;;;;;;6.97;6.28;;;;;;;;;;5111190;27;20149;-40
2021/06/15 02:34:50;;;;;;;11.00;6.00;;;;;;;;;;5100563;27;20500;-40
2021/06/15 02:37:20;;;;;;;10.43;7.00;;;;;;;;;;5102490;27;20470;-39
2021/06/15 02:39:45;;;;;;;11.43;5.60;;;;;;;;;;5109396;27;20023;-41
2021/06/15 02:42:13;;;;;;;8.55;7.65;;;;;;;;;;5106782;27;20030;-40
2021/06/15 02:44:39;;;;;;;6.20;5.38;;;;;;;;;;5102265;27;20085;-40
2021/06/15 02:47:05;;;;;;;13.45;6.45;;;;;;;;;;5099534;28;20084;-41
2021/06/15 02:49:33;;;;;;;6.65;6.15;;;;;;;;;;5104719;27;20138;-39
2021/06/15 02:52:16;;;;;;;6.28;5.68;;;;;;;;;;5102260;27;20384;-39
2021/06/15 02:54:51;;;;;;;6.10;5.30;;;;;;;;;;5103971;27;20020;-39
2021/06/15 02:57:17;;;;;;;9.20;5.93;;;;;;;;;;5106027;27;20012;-39
2021/06/15 02:59:42;;;;;;;9.95;6.13;;;;;;;;;;5107763;27;20039;-40
2021/06/15 03:02:08;;;;;;;5.80;5.20;;;;;;;;;;5109587;27;20463;-39
2021/06/15 03:04:33;;;;;;;4.75;4.35;;;;;;;;;;5110399;27;20596;-40
2021/06/15 03:06:58;;;;;;;7.50;4.55;;;;;;;;;;5102317;27;20282;-40
2021/06/15 03:09:24;;;;;;;4.75;4.35;;;;;;;;;;5106301;27;20665;-40
2021/06/15 03:12:12;;;;;;;6.75;5.38;;;;;;;;;;5100187;27;20054;-39
2021/06/15 03:14:39;;;;;;;6.55;5.63;;;;;;;;;;5101490;27;20035;-40
2021/06/15 03:17:06;;;;;;;7.05;5.28;;;;;;;;;;5105562;27;20407;-40
2021/06/15 03:19:52;;;;;;;12.82;7.65;;;;;;;;;;5113145;27;20016;-39
2021/06/15 03:22:21;;;;;;;6.78;6.18;;;;;;;;;;5103290;27;20055;-41
2021/06/15 03:24:51;;;;;;;5.90;5.30;;;;;;;;;;5106764;27;20028;-40
2021/06/15 03:27:18;;;;;;;5.30;4.43;;;;;;;;;;5104191;27;20054;-40
2021/06/15 03:29:44;;;;;;;8.98;5.90;;;;;;;;;;5100696;27;20409;-39
2021/06/15 03:32:15;;;;;;;5.80;5.30;;;;;;;;;;5096659;27;20024;-39
2021/06/15 03:34:45;;;;;;;6.80;5.50;;;;;;;;;;5098101;27;20024;-39
2021/06/15 03:37:24;;;;;;;6.10;4.88;;;;;;;;;;5104230;27;20024;-40
2021/06/15 03:39:49;;;;;;;6.53;5.93;;;;;;;;;;5102244;27;20022;-39
2021/06/15 03:42:22;;;;;;;8.93;5.32;;;;;;;;;;5105454;27;20035;-39
2021/06/15 03:44:54;;;;;;;5.50;4.28;;;;;;;;;;5105627;27;20084;-40
2021/06/15 03:47:22;;;;;;;11.55;7.03;;;;;;;;;;5104818;27;20023;-40
2021/06/15 03:49:47;;;;;;;8.52;7.72;;;;;;;;;;5099417;27;20490;-40
2021/06/15 03:52:13;;;;;;;6.20;5.70;;;;;;;;;;5106472;27;20077;-40
2021/06/15 03:54:39;;;;;;;8.93;6.88;;;;;;;;;;5105349;27;20583;-40
2021/06/15 03:57:05;;;;;;;14.32;6.88;;;;;;;;;;5110873;27;20490;-41
2021/06/15 03:59:32;;;;;;;6.05;5.53;;;;;;;;;;5100734;27;20024;-41
2021/06/15 04:02:00;;;;;;;6.63;6.03;;;;;;;;;;5100065;27;20100;-40
2021/06/15 04:04:27;;;;;;;7.47;4.88;;;;;;;;;;5098283;27;20560;-39
2021/06/15 04:06:54;;;;;;;12.95;5.32;;;;;;;;;;5099220;28;20502;-41
2021/06/15 04:09:20;;;;;;;5.50;4.55;;;;;;;;;;5106576;27;20421;-40
2021/06/15 04:11:46;;;;;;;5.88;5.28;;;;;;;;;;5106699;27;20509;-42
2021/06/15 04:14:12;;;;;;;5.25;4.78;;;;;;;;;;5105432;27;20080;-42
2021/06/15 04:16:38;;;;;;;11.43;6.65;;;;;;;;;;5101829;27;20015;-42
2021/06/15 04:19:06;;;;;;;5.47;4.97;;;;;;;;;;5101968;27;20019;-40
2021/06/15 04:21:33;;;;;;;9.68;5.80;;;;;;;;;;5100773;27;20055;-40
2021/06/15 04:24:03;;;;;;;5.97;5.38;;;;;;;;;;5103742;27;20020;-40
2021/06/15 04:26:29;;;;;;;7.60;6.38;;;;;;;;;;5106114;27;20092;-39
2021/06/15 04:28:55;;;;;;;7.40;6.53;;;;;;;;;;5104088;27;20130;-41
2021/06/15 04:31:23;;;;;;;7.47;6.68;;;;;;;;;;5102793;27;20450;-40
2021/06/15 04:33:49;;;;;;;6.60;5.60;;;;;;;;;;5096093;27;20012;-39
2021/06/15 04:36:17;;;;;;;9.63;6.88;;;;;;;;;;5095882;28;20024;-42
2021/06/15 04:38:52;;;;;;;10.65;6.40;;;;;;;;;;5098253;27;20044;-40
2021/06/15 04:41:19;;;;;;;6.75;6.15;;;;;;;;;;5101665;27;20023;-39
2021/06/15 04:44:10;;;;;;;9.90;6.28;;;;;;;;;;5105461;27;20072;-41
2021/06/15 04:46:44;;;;;;;6.97;6.28;;;;;;;;;;5108658;27;20040;-40
2021/06/15 04:49:13;;;;;;;6.63;5.93;;;;;;;;;;5101187;28;20016;-40
2021/06/15 04:51:39;;;;;;;16.05;7.75;;;;;;;;;;5103454;28;20067;-39
2021/06/15 04:54:05;;;;;;;8.30;7.10;;;;;;;;;;5103127;28;20038;-39
2021/06/15 04:56:30;;;;;;;6.40;5.80;;;;;;;;;;5098463;28;20011;-39
2021/06/15 04:59:00;;;;;;;8.60;7.78;;;;;;;;;;5097127;28;20028;-39
2021/06/15 05:01:26;;;;;;;7.55;6.35;;;;;;;;;;5094503;28;20479;-40
2021/06/15 05:03:52;;;;;;;10.00;8.50;;;;;;;;;;5101468;28;20039;-41
2021/06/15 05:06:19;;;;;;;8.07;7.35;;;;;;;;;;5099071;28;20043;-39
2021/06/15 05:08:50;;;;;;;7.55;6.85;;;;;;;;;;5101750;28;20024;-40
2021/06/15 05:11:16;;;;;;;6.47;5.85;;;;;;;;;;5101359;28;20035;-41
2021/06/15 05:13:42;;;;;;;7.05;6.45;;;;;;;;;;5094604;28;20015;-40
2021/06/15 05:16:08;;;;;;;6.13;5.53;;;;;;;;;;5098526;28;20028;-40
2021/06/15 05:18:35;;;;;;;11.07;6.47;;;;;;;;;;5100811;28;20011;-39
2021/06/15 05:21:02;;;;;;;6.60;5.85;;;;;;;;;;5099587;28;20123;-39
2021/06/15 05:23:31;;;;;;;8.45;7.68;;;;;;;;;;5103729;28;20024;-38
2021/06/15 05:25:56;;;;;;;9.27;7.93;;;;;;;;;;5097876;28;20379;-37
2021/06/15 05:28:22;;;;;;;8.32;7.47;;;;;;;;;;5094136;28;20081;-37
2021/06/15 05:30:47;;;;;;;8.60;6.25;;;;;;;;;;5109862;28;20015;-37
2021/06/15 05:33:12;;;;;;;7.22;5.97;;;;;;;;;;5103009;27;20423;-37
2021/06/15 05:35:40;;;;;;;7.18;6.57;;;;;;;;;;5103505;28;20030;-41
2021/06/15 05:38:05;;;;;;;10.40;7.53;;;;;;;;;;5106953;27;20036;-40
2021/06/15 05:40:31;;;;;;;12.35;7.47;;;;;;;;;;5108767;27;20060;-40
2021/06/15 05:42:56;;;;;;;10.85;6.80;;;;;;;;;;5107140;27;20015;-41
2021/06/15 05:45:21;;;;;;;11.70;7.75;;;;;;;;;;5103603;27;20016;-41
2021/06/15 05:47:46;;;;;;;14.50;7.28;;;;;;;;;;5104624;27;20023;-39
2021/06/15 05:50:16;;;;;;;12.20;8.63;;;;;;;;;;5102035;27;20032;-42
2021/06/15 05:52:41;;;;;;;10.70;7.85;;;;;;;;;;5103714;27;20012;-42
2021/06/15 05:55:07;;;;;;;10.57;8.73;;;;;;;;;;5099516;27;20027;-44
2021/06/15 05:57:33;;;;;;;17.50;9.35;;;;;;;;;;5104436;27;20020;-40
2021/06/15 05:59:58;;;;;;;12.57;7.20;;;;;;;;;;5106306;27;20688;-40
2021/06/15 06:02:24;;;;;;;7.18;6.25;;;;;;;;;;5108148;27;20028;-41
2021/06/15 06:10:05;;;;;;;11.70;8.18;;;;;;;;;;5114019;27;20493;-42
2021/06/15 06:12:30;;;;;;;6.53;5.93;;;;;;;;;;5109459;27;20024;-40
2021/06/15 06:14:55;;;;;;;23.30;8.48;;;;;;;;;;5105633;27;20450;-40
2021/06/15 06:17:21;;;;;;;9.57;7.40;;;;;;;;;;5102286;27;20008;-44
2021/06/15 06:19:46;;;;;;;8.15;7.05;;;;;;;;;;5104356;27;20024;-42
2021/06/15 06:22:13;;;;;;;82.10;54.63;;;;;;;;;;5102116;27;20064;-43
2021/06/15 06:24:39;;;;;;;79.68;62.17;;;;;;;;;;5103040;27;20020;-41
2021/06/15 06:27:04;;;;;;;55.60;40.22;;;;;;;;;;5101209;27;20022;-40
2021/06/15 06:29:30;;;;;;;39.80;34.38;;;;;;;;;;5103054;27;20488;-43
2021/06/15 06:31:55;;;;;;;38.78;31.65;;;;;;;;;;5107009;27;20039;-42
2021/06/15 06:34:20;;;;;;;30.25;26.80;;;;;;;;;;5105061;27;20028;-42
2021/06/15 06:36:46;;;;;;;31.77;24.60;;;;;;;;;;5105374;27;20035;-41
2021/06/15 06:39:11;;;;;;;39.88;22.65;;;;;;;;;;5105892;27;20023;-41
2021/06/15 06:41:37;;;;;;;37.90;26.67;;;;;;;;;;5106566;27;20046;-42
2021/06/15 06:44:02;;;;;;;52.60;38.83;;;;;;;;;;5103555;27;20133;-41
2021/06/15 06:46:28;;;;;;;36.20;29.60;;;;;;;;;;5107686;27;20394;-41
2021/06/15 06:48:53;;;;;;;25.35;22.73;;;;;;;;;;5099278;27;20045;-40
2021/06/15 06:51:19;;;;;;;37.53;27.88;;;;;;;;;;5102510;27;20024;-40
2021/06/15 06:53:44;;;;;;;29.08;26.42;;;;;;;;;;5104210;27;20031;-43
2021/06/15 06:56:10;;;;;;;37.08;31.15;;;;;;;;;;5111493;27;20096;-42
2021/06/15 06:58:35;;;;;;;37.30;29.65;;;;;;;;;;5108595;27;20502;-41
2021/06/15 07:01:01;;;;;;;44.70;26.45;;;;;;;;;;5102325;27;20106;-41
2021/06/15 07:03:26;;;;;;;23.33;20.38;;;;;;;;;;5104255;27;20015;-40
2021/06/15 07:05:52;;;;;;;33.20;18.65;;;;;;;;;;5103274;27;20071;-41
2021/06/15 07:08:17;;;;;;;22.80;16.50;;;;;;;;;;5105293;27;20642;-41
2021/06/15 07:10:42;;;;;;;16.85;15.10;;;;;;;;;;5109288;27;20032;-40
2021/06/15 07:13:07;;;;;;;13.25;11.32;;;;;;;;;;5108879;27;20035;-41
2021/06/15 07:15:33;;;;;;;8.70;7.90;;;;;;;;;;5104194;27;20557;-42
2021/06/15 07:17:58;;;;;;;14.00;9.23;;;;;;;;;;5104564;27;20554;-42
2021/06/15 07:20:23;;;;;;;15.07;10.48;;;;;;;;;;5099971;27;20044;-42
2021/06/15 07:22:49;;;;;;;24.90;18.40;;;;;;;;;;5104943;27;20352;-42
2021/06/15 07:25:14;;;;;;;24.10;20.88;;;;;;;;;;5105620;27;20030;-43
2021/06/15 07:27:40;;;;;;;22.05;19.45;;;;;;;;;;5107653;27;20016;-47
2021/06/15 07:30:06;;;;;;;26.08;19.33;;;;;;;;;;5105856;27;20060;-45
2021/06/15 07:32:31;;;;;;;22.67;18.40;;;;;;;;;;5103957;27;20368;-43
2021/06/15 07:34:56;;;;;;;20.90;17.27;;;;;;;;;;5101019;27;20034;-42
2021/06/15 07:37:22;;;;;;;34.78;20.70;;;;;;;;;;5097264;27;20026;-43
2021/06/15 07:39:47;;;;;;;20.15;16.73;;;;;;;;;;5099419;27;20015;-41
2021/06/15 07:42:13;;;;;;;23.90;13.30;;;;;;;;;;5099350;27;20107;-46
2021/06/15 07:44:38;;;;;;;11.82;10.07;;;;;;;;;;5098228;27;20034;-43
2021/06/15 07:47:04;;;;;;;7.40;6.55;;;;;;;;;;5105879;27;20028;-40
2021/06/15 07:49:30;;;;;;;9.25;8.27;;;;;;;;;;5103535;27;20047;-45
2021/06/15 07:51:56;;;;;;;10.63;9.55;;;;;;;;;;5099613;27;20022;-45
2021/06/15 07:54:21;;;;;;;11.45;6.97;;;;;;;;;;5099317;27;20032;-43
2021/06/15 07:56:46;;;;;;;19.17;9.15;;;;;;;;;;5105374;27;20016;-43
2021/06/15 07:59:12;;;;;;;14.63;11.43;;;;;;;;;;5110220;27;20711;-41
2021/06/15 08:01:37;;;;;;;15.13;10.38;;;;;;;;;;5108466;27;20047;-41
2021/06/15 08:04:02;;;;;;;9.63;8.45;;;;;;;;;;5099053;27;20371;-40
2021/06/15 08:06:28;;;;;;;7.55;6.28;;;;;;;;;;5103526;27;20092;-41
2021/06/15 08:08:53;;;;;;;13.48;6.00;;;;;;;;;;5101517;27;20020;-41
2021/06/15 08:11:19;;;;;;;6.45;5.07;;;;;;;;;;5102056;27;20058;-41
2021/06/15 08:13:44;;;;;;;6.25;5.03;;;;;;;;;;5103082;27;20035;-41
2021/06/15 08:16:10;;;;;;;7.22;5.90;;;;;;;;;;5098912;27;20515;-44
2021/06/15 08:18:35;;;;;;;13.77;6.65;;;;;;;;;;5097399;27;20343;-44
2021/06/15 08:21:01;;;;;;;6.57;5.90;;;;;;;;;;5101257;27;20068;-42
2021/06/15 08:23:26;;;;;;;7.85;6.00;;;;;;;;;;5106944;27;20046;-41
2021/06/15 08:25:52;;;;;;;8.07;6.30;;;;;;;;;;5105403;27;20023;-41
2021/06/15 08:28:17;;;;;;;6.82;6.10;;;;;;;;;;5101224;27;20024;-42
2021/06/15 08:30:43;;;;;;;7.20;6.38;;;;;;;;;;5095270;27;20513;-41
2021/06/15 08:33:08;;;;;;;5.93;5.38;;;;;;;;;;5104502;27;20080;-40
2021/06/15 08:35:34;;;;;;;8.85;6.97;;;;;;;;;;5096766;28;20023;-41
2021/06/15 08:38:00;;;;;;;11.95;7.38;;;;;;;;;;5095744;27;20059;-40
2021/06/15 08:40:25;;;;;;;7.22;6.53;;;;;;;;;;5100745;27;20011;-40
2021/06/15 08:42:51;;;;;;;6.60;5.50;;;;;;;;;;5102726;28;20507;-41
2021/06/15 08:45:16;;;;;;;17.30;7.45;;;;;;;;;;5099945;27;20023;-53
2021/06/15 08:47:47;;;;;;;21.17;8.25;;;;;;;;;;5093482;28;20042;-43
2021/06/15 08:50:14;;;;;;;6.15;5.63;;;;;;;;;;5097051;28;20531;-44
2021/06/15 08:52:40;;;;;;;19.63;7.85;;;;;;;;;;5095287;28;20027;-40
2021/06/15 08:55:06;;;;;;;12.00;6.63;;;;;;;;;;5094908;28;20089;-43
2021/06/15 08:57:32;;;;;;;12.60;6.43;;;;;;;;;;5097328;28;20027;-41
2021/06/15 09:00:01;;;;;;;15.85;6.45;;;;;;;;;;5101087;28;20016;-41
2021/06/15 09:02:27;;;;;;;16.13;8.23;;;;;;;;;;5093480;28;20064;-40
2021/06/15 09:04:53;;;;;;;79.80;18.60;;;;;;;;;;5093372;28;20069;-39
2021/06/15 09:07:19;;;;;;;184.23;29.38;;;;;;;;;;5094914;28;20124;-38
2021/06/15 09:09:48;;;;;;;76.38;16.30;;;;;;;;;;5107654;28;20019;-42
2021/06/15 09:12:15;;;;;;;10.83;6.37;;;;;;;;;;5105397;27;20019;-38
2021/06/15 09:14:50;;;;;;;12.85;5.45;;;;;;;;;;5109787;27;20806;-38
2021/06/15 09:17:25;;;;;;;6.03;4.82;;;;;;;;;;5102086;27;20028;-37
2021/06/15 09:19:50;;;;;;;6.85;4.18;;;;;;;;;;5103068;27;20023;-37
2021/06/15 09:22:25;;;;;;;6.35;4.50;;;;;;;;;;5101118;27;20887;-37
2021/06/15 09:24:51;;;;;;;10.88;5.22;;;;;;;;;;5103708;27;20028;-37
2021/06/15 09:27:16;;;;;;;3.67;3.38;;;;;;;;;;5105220;27;20597;-37
2021/06/15 09:29:49;;;;;;;3.95;3.65;;;;;;;;;;5103062;27;20024;-37
2021/06/15 09:32:16;;;;;;;12.07;4.78;;;;;;;;;;5102294;27;20043;-39
2021/06/15 09:34:55;;;;;;;7.50;4.78;;;;;;;;;;5098538;27;20020;-39
2021/06/15 09:37:31;;;;;;;5.05;4.65;;;;;;;;;;5099126;27;20024;-37
2021/06/15 09:39:57;;;;;;;5.22;4.15;;;;;;;;;;5097581;27;20020;-36
2021/06/15 09:42:22;;;;;;;9.02;4.18;;;;;;;;;;5103780;27;20019;-37
2021/06/15 09:44:48;;;;;;;4.60;3.72;;;;;;;;;;5105907;27;20080;-36
2021/06/15 09:47:13;;;;;;;3.85;3.35;;;;;;;;;;5100406;27;20044;-37
2021/06/15 09:49:42;;;;;;;5.93;3.58;;;;;;;;;;5101596;27;20103;-38
2021/06/15 09:52:17;;;;;;;8.55;4.13;;;;;;;;;;5101236;27;20024;-38
2021/06/15 09:54:59;;;;;;;4.20;3.60;;;;;;;;;;5100174;27;20379;-38
2021/06/15 09:57:26;;;;;;;3.28;2.97;;;;;;;;;;5100590;27;20016;-43
2021/06/15 10:00:08;;;;;;;5.70;4.25;;;;;;;;;;5102461;27;20013;-43
2021/06/15 10:02:33;;;;;;;5.05;3.28;;;;;;;;;;5106744;27;20039;-40
2021/06/15 10:05:02;;;;;;;5.22;3.00;;;;;;;;;;5098841;27;20020;-48
2021/06/15 10:07:28;;;;;;;3.85;3.35;;;;;;;;;;5101603;27;20048;-43
2021/06/15 10:09:55;;;;;;;6.30;4.45;;;;;;;;;;5102165;28;20061;-43
2021/06/15 10:12:20;;;;;;;4.45;3.42;;;;;;;;;;5103467;28;20027;-37
2021/06/15 10:14:46;;;;;;;4.93;3.13;;;;;;;;;;5100915;28;20148;-37
2021/06/15 10:17:11;;;;;;;3.72;2.45;;;;;;;;;;5108416;27;20741;-37
2021/06/15 10:19:38;;;;;;;3.58;2.92;;;;;;;;;;5096834;28;20433;-37
2021/06/15 10:22:03;;;;;;;4.70;2.47;;;;;;;;;;5097062;28;20425;-37
2021/06/15 10:24:29;;;;;;;16.60;3.17;;;;;;;;;;5102240;28;20493;-37
2021/06/15 10:26:54;;;;;;;4.32;3.92;;;;;;;;;;5099009;28;20036;-38
2021/06/15 10:29:20;;;;;;;14.85;2.35;;;;;;;;;;5102733;28;20080;-36
2021/06/15 10:31:47;;;;;;;2.05;1.52;;;;;;;;;;5102661;27;20103;-36
2021/06/15 10:34:13;;;;;;;2.75;2.35;;;;;;;;;;5103381;27;20036;-37
2021/06/15 10:36:39;;;;;;;3.65;3.17;;;;;;;;;;5102146;28;20528;-37
2021/06/15 10:39:09;;;;;;;5.65;1.90;;;;;;;;;;5097760;28;20023;-38
2021/06/15 10:41:35;;;;;;;4.60;2.40;;;;;;;;;;5101384;28;20022;-36
2021/06/15 10:44:00;;;;;;;4.70;2.28;;;;;;;;;;5100834;28;20023;-38
2021/06/15 10:46:27;;;;;;;2.40;1.55;;;;;;;;;;5102532;28;20066;-38
2021/06/15 10:48:57;;;;;;;3.42;2.28;;;;;;;;;;5099764;28;20051;-37
2021/06/15 10:51:25;;;;;;;2.67;1.85;;;;;;;;;;5101771;28;20098;-38
2021/06/15 10:53:51;;;;;;;6.07;2.33;;;;;;;;;;5100174;28;20031;-37
2021/06/15 10:56:18;;;;;;;2.85;2.35;;;;;;;;;;5099705;27;21006;-38
2021/06/15 10:58:53;;;;;;;3.80;2.85;;;;;;;;;;5104665;28;20108;-38
2021/06/15 11:01:20;;;;;;;3.70;2.33;;;;;;;;;;5102517;28;20028;-38
2021/06/15 11:03:56;;;;;;;5.88;2.10;;;;;;;;;;5100398;28;20022;-38
2021/06/15 11:06:27;;;;;;;9.80;3.33;;;;;;;;;;5093621;28;174765;-37
2021/06/15 11:09:14;;;;;;;3.25;1.95;;;;;;;;;;5099262;27;20063;-37
2021/06/15 11:11:40;;;;;;;5.07;3.17;;;;;;;;;;5099857;27;20036;-38
2021/06/15 11:14:06;;;;;;;3.33;2.03;;;;;;;;;;5103627;27;20073;-39
2021/06/15 11:16:43;;;;;;;12.32;3.15;;;;;;;;;;5098929;27;20118;-38
2021/06/15 11:19:12;;;;;;;7.15;3.60;;;;;;;;;;5100295;27;20507;-38
2021/06/15 11:22:01;;;;;;;2.67;2.15;;;;;;;;;;5098071;27;20023;-38
2021/06/15 11:24:28;;;;;;;6.28;2.70;;;;;;;;;;5087722;27;20502;-38
2021/06/15 11:26:54;;;;;;;1.77;1.25;;;;;;;;;;5102791;27;20810;-38
2021/06/15 11:29:31;;;;;;;5.82;2.25;;;;;;;;;;5099699;27;20039;-38
2021/06/15 11:32:16;;;;;;;1.95;1.40;;;;;;;;;;5105184;27;20031;-38
2021/06/15 11:34:53;;;;;;;2.78;2.38;;;;;;;;;;5099663;27;20021;-39
2021/06/15 11:37:19;;;;;;;6.82;2.28;;;;;;;;;;5101298;27;20532;-37
2021/06/15 11:39:44;;;;;;;7.65;3.22;;;;;;;;;;5099119;27;20525;-38
2021/06/15 11:42:20;;;;;;;5.20;2.95;;;;;;;;;;5099492;27;20019;-38
2021/06/15 11:44:56;;;;;;;2.75;2.50;;;;;;;;;;5098771;27;20035;-38
2021/06/15 11:47:38;;;;;;;7.63;2.13;;;;;;;;;;5098574;27;20482;-38
2021/06/15 11:50:03;;;;;;;4.30;2.63;;;;;;;;;;5094870;27;20134;-37
2021/06/15 11:52:29;;;;;;;3.03;2.37;;;;;;;;;;5098895;27;20027;-36
2021/06/15 11:54:55;;;;;;;4.90;3.45;;;;;;;;;;5100882;27;20796;-38
2021/06/15 11:57:20;;;;;;;3.42;2.80;;;;;;;;;;5095906;27;20019;-38
2021/06/15 11:59:46;;;;;;;5.43;3.08;;;;;;;;;;5098189;27;20012;-37
2021/06/15 12:02:11;;;;;;;3.25;2.38;;;;;;;;;;5097140;27;20081;-37
2021/06/15 12:04:36;;;;;;;3.85;1.92;;;;;;;;;;5098417;27;20482;-38
2021/06/15 12:07:17;;;;;;;4.45;2.55;;;;;;;;;;5099641;27;20039;-38
2021/06/15 12:10:02;;;;;;;2.90;2.38;;;;;;;;;;5097352;27;20050;-38
2021/06/15 12:12:28;;;;;;;4.47;3.50;;;;;;;;;;5096988;27;20126;-38
2021/06/15 12:14:53;;;;;;;5.80;3.10;;;;;;;;;;5097473;27;20165;-38
2021/06/15 12:17:18;;;;;;;2.75;1.63;;;;;;;;;;5103993;27;20024;-37
2021/06/15 12:19:44;;;;;;;3.38;2.60;;;;;;;;;;5100430;27;20378;-37
2021/06/15 12:22:15;;;;;;;12.40;2.25;;;;;;;;;;5104805;27;20145;-37
2021/06/15 12:24:44;;;;;;;3.13;2.33;;;;;;;;;;5101239;27;20525;-37
2021/06/15 12:27:20;;;;;;;3.33;2.15;;;;;;;;;;5102778;27;20021;-37
2021/06/15 12:29:45;;;;;;;5.00;2.83;;;;;;;;;;5101531;27;20012;-37
2021/06/15 12:32:10;;;;;;;5.57;2.38;;;;;;;;;;5098967;27;20789;-36
2021/06/15 12:34:35;;;;;;;5.25;2.35;;;;;;;;;;5100735;27;20517;-37
2021/06/15 12:37:03;;;;;;;4.32;1.95;;;;;;;;;;5101288;27;20024;-35
2021/06/15 12:39:30;;;;;;;3.97;2.05;;;;;;;;;;5103451;27;20023;-36
2021/06/15 12:41:58;;;;;;;3.83;2.63;;;;;;;;;;5098573;27;20047;-36
2021/06/15 12:44:31;;;;;;;5.80;2.67;;;;;;;;;;5096063;28;20114;-35
2021/06/15 12:46:58;;;;;;;3.22;2.90;;;;;;;;;;5098217;27;20030;-36
2021/06/15 12:49:24;;;;;;;1.50;1.33;;;;;;;;;;5096689;28;20038;-36
2021/06/15 12:51:49;;;;;;;1.70;1.20;;;;;;;;;;5095915;27;20024;-35
2021/06/15 12:54:21;;;;;;;4.90;1.55;;;;;;;;;;5097315;28;20024;-36
2021/06/15 12:57:01;;;;;;;2.80;1.92;;;;;;;;;;5103811;28;20015;-35
2021/06/15 12:59:26;;;;;;;9.23;2.67;;;;;;;;;;5102438;28;20023;-37
2021/06/15 13:01:53;;;;;;;4.60;2.63;;;;;;;;;;5096282;28;20841;-36
2021/06/15 13:04:28;;;;;;;4.18;2.03;;;;;;;;;;5097496;28;20051;-36
2021/06/15 13:06:55;;;;;;;2.53;1.65;;;;;;;;;;5095332;28;20051;-35
2021/06/15 13:09:21;;;;;;;1.73;1.27;;;;;;;;;;5097474;28;20077;-36
2021/06/15 13:11:54;;;;;;;8.57;3.13;;;;;;;;;;5101225;28;20024;-36
2021/06/15 13:14:27;;;;;;;3.25;2.78;;;;;;;;;;5102697;28;20509;-36
2021/06/15 13:17:18;;;;;;;7.65;2.53;;;;;;;;;;5099095;28;20020;-36
2021/06/15 13:19:46;;;;;;;2.22;1.63;;;;;;;;;;5091927;28;20525;-36
2021/06/15 13:22:16;;;;;;;3.85;2.50;;;;;;;;;;5098166;28;20016;-36
2021/06/15 13:24:42;;;;;;;;;;;;;;;;;;5098597;28;20030;-36
2021/06/15 13:27:25;;;;;;;8.18;2.20;;;;;;;;;;5099296;28;19908;-36
2021/06/15 13:29:52;;;;;;;2.08;1.52;;;;;;;;;;5097284;28;20024;-36
2021/06/15 13:32:22;;;;;;;6.00;2.35;;;;;;;;;;5100406;28;20322;-36
2021/06/15 13:35:04;;;;;;;5.18;1.52;;;;;;;;;;5094031;28;20160;-39
2021/06/15 13:37:31;;;;;;;3.65;3.00;;;;;;;;;;5097677;28;20682;-36
2021/06/15 13:39:57;;;;;;;2.10;1.20;;;;;;;;;;5097205;28;20011;-36
2021/06/15 13:42:26;;;;;;;10.07;2.28;;;;;;;;;;5094522;28;20028;-36
2021/06/15 13:45:00;;;;;;;2.53;1.75;;;;;;;;;;5094833;28;20478;-36
2021/06/15 13:47:25;;;;;;;7.75;2.67;;;;;;;;;;5098559;28;20523;-36
2021/06/15 13:49:51;;;;;;;2.22;1.50;;;;;;;;;;5096478;28;20018;-36
2021/06/15 13:52:16;;;;;;;3.13;1.20;;;;;;;;;;5103640;28;20024;-36
2021/06/15 13:54:41;;;;;;;0.73;0.70;;;;;;;;;;5095664;27;20329;-36
2021/06/15 13:57:07;;;;;;;2.17;1.95;;;;;;;;;;5095701;28;20053;-36
2021/06/15 13:59:32;;;;;;;7.10;3.50;;;;;;;;;;5104978;27;20075;-37
2021/06/15 14:01:57;;;;;;;7.38;3.55;;;;;;;;;;5103008;27;20069;-37
2021/06/15 14:04:22;;;;;;;4.10;2.95;;;;;;;;;;5103945;27;20399;-36
2021/06/15 14:06:48;;;;;;;15.63;3.72;;;;;;;;;;5101223;27;20054;-36
2021/06/15 14:09:13;;;;;;;4.50;1.33;;;;;;;;;;5101978;27;20106;-36
2021/06/15 14:11:39;;;;;;;9.70;2.85;;;;;;;;;;5101520;27;20429;-37
2021/06/15 14:14:04;;;;;;;9.40;3.15;;;;;;;;;;5101463;27;20023;-36
2021/06/15 14:16:30;;;;;;;4.82;3.22;;;;;;;;;;5106818;27;20124;-36
2021/06/15 14:18:55;;;;;;;9.68;3.03;;;;;;;;;;5098666;28;20432;-36
2021/06/15 14:21:20;;;;;;;3.72;1.60;;;;;;;;;;5101527;28;20070;-36
2021/06/15 14:23:45;;;;;;;2.25;1.48;;;;;;;;;;5101331;27;20023;-36
2021/06/15 14:26:11;;;;;;;2.55;1.90;;;;;;;;;;5102485;27;20046;-36
2021/06/15 14:28:36;;;;;;;15.30;3.53;;;;;;;;;;5100824;27;20395;-37
2021/06/15 14:31:02;;;;;;;3.05;1.52;;;;;;;;;;5101314;27;20023;-36
2021/06/15 14:33:27;;;;;;;2.00;1.50;;;;;;;;;;5103489;27;20492;-36
2021/06/15 14:35:52;;;;;;;1.40;1.00;;;;;;;;;;5104312;27;20537;-36
2021/06/15 14:38:18;;;;;;;3.60;2.08;;;;;;;;;;5101468;27;20596;-36
2021/06/15 14:40:43;;;;;;;1.98;1.35;;;;;;;;;;5101969;27;20561;-36
2021/06/15 14:43:08;;;;;;;2.33;1.88;;;;;;;;;;5102380;27;20024;-36
2021/06/15 14:45:34;;;;;;;1.25;1.02;;;;;;;;;;5102178;27;20525;-36
2021/06/15 14:47:59;;;;;;;21.65;2.25;;;;;;;;;;5102443;27;20111;-36